createdAt,value
2023-02-01T00:00:44.377Z,80.81
2023-02-01T00:03:13.805Z,79.83
2023-02-01T00:05:41.431Z,81.36
2023-02-01T00:08:10.558Z,81.63
2023-02-01T00:10:38.152Z,82.22
2023-02-01T00:13:05.780Z,81.45
2023-02-01T00:15:34.575Z,83.06
2023-02-01T00:18:03.501Z,83.21
2023-02-01T00:20:31.118Z,83.21
2023-02-01T00:22:58.806Z,82.93
2023-02-01T00:25:26.407Z,83.13
2023-02-01T00:27:53.986Z,83.41
2023-02-01T00:30:22.202Z,84.72
2023-02-01T00:32:49.983Z,83.36
2023-02-01T00:35:18.978Z,84.09
2023-02-01T00:37:46.625Z,82.73
2023-02-01T00:40:14.791Z,84.69
2023-02-01T00:42:42.462Z,82.99
2023-02-01T00:45:11.231Z,84.56
2023-02-01T00:47:39.111Z,85.26
2023-02-01T00:50:07.161Z,82.81
2023-02-01T00:52:36.139Z,83.87
2023-02-01T00:55:03.865Z,83.62
2023-02-01T00:57:31.551Z,82.99
2023-02-01T00:59:59.159Z,83.63
2023-02-01T01:02:28.632Z,85.19
2023-02-01T01:04:56.407Z,84.16
2023-02-01T01:07:24.001Z,83.64
2023-02-01T01:09:52.932Z,83.36
2023-02-01T01:12:20.679Z,84.08
2023-02-01T01:14:48.417Z,84.50
2023-02-01T01:17:16.051Z,84.26
2023-02-01T01:19:43.667Z,83.20
2023-02-01T01:22:11.365Z,84.10
2023-02-01T01:24:38.966Z,83.07
2023-02-01T01:27:08.023Z,83.71
2023-02-01T01:29:35.643Z,83.58
2023-02-01T01:32:03.351Z,84.45
2023-02-01T01:34:31.055Z,84.21
2023-02-01T01:36:59.384Z,82.92
2023-02-01T01:39:27.089Z,84.53
2023-02-01T01:41:54.837Z,83.61
2023-02-01T01:45:05.721Z,83.90
2023-02-01T01:47:37.599Z,84.32
2023-02-01T01:50:08.203Z,84.20
2023-02-01T01:52:37.024Z,83.91
2023-02-01T01:55:06.243Z,84.25
2023-02-01T01:57:36.659Z,84.01
2023-02-01T02:00:10.630Z,85.11
2023-02-01T02:02:39.101Z,84.62
2023-02-01T02:05:07.442Z,84.17
2023-02-01T02:07:39.617Z,83.53
2023-02-01T02:10:11.621Z,84.34
2023-02-01T02:12:41.179Z,84.71
2023-02-01T02:15:13.840Z,85.63
2023-02-01T02:17:50.275Z,84.54
2023-02-01T02:20:51.997Z,84.96
2023-02-01T02:23:40.052Z,85.09
2023-02-01T02:26:37.276Z,84.70
2023-02-01T02:29:35.390Z,85.04
2023-02-01T02:32:33.984Z,84.84
2023-02-01T02:35:08.037Z,85.24
2023-02-01T02:37:41.248Z,85.65
2023-02-01T02:40:21.976Z,85.09
2023-02-01T02:43:17.763Z,85.08
2023-02-01T02:46:09.721Z,86.52
2023-02-01T02:48:44.699Z,88.42
2023-02-01T02:51:34.566Z,89.07
2023-02-01T02:54:25.884Z,87.67
2023-02-01T02:57:13.280Z,87.58
2023-02-01T03:00:00.914Z,88.11
2023-02-01T03:02:47.470Z,87.40
2023-02-01T03:08:03.715Z,90.43
2023-02-01T03:10:39.669Z,90.55
2023-02-01T03:13:09.410Z,91.26
2023-02-01T03:15:43.052Z,92.51
2023-02-01T03:18:17.164Z,92.65
2023-02-01T03:20:49.021Z,91.95
2023-02-01T03:23:22.769Z,93.58
2023-02-01T03:25:53.385Z,92.95
2023-02-01T03:28:22.481Z,93.13
2023-02-01T03:30:51.728Z,93.93
2023-02-01T03:33:25.344Z,94.56
2023-02-01T03:36:03.105Z,94.87
2023-02-01T03:38:37.448Z,94.82
2023-02-01T03:41:12.097Z,93.57
2023-02-01T03:43:49.980Z,93.63
2023-02-01T03:46:25.729Z,92.31
2023-02-01T03:48:55.686Z,93.51
2023-02-01T03:51:25.072Z,91.72
2023-02-01T03:53:55.623Z,91.14
2023-02-01T03:56:24.838Z,90.30
2023-02-01T03:59:00.377Z,91.01
2023-02-01T04:01:30.234Z,89.92
2023-02-01T04:03:58.785Z,90.59
2023-02-01T04:06:27.091Z,90.95
2023-02-01T04:08:56.198Z,91.76
2023-02-01T04:11:24.020Z,91.38
2023-02-01T04:13:51.662Z,91.64
2023-02-01T04:16:19.361Z,90.63
2023-02-01T04:18:47.050Z,91.36
2023-02-01T04:21:14.736Z,91.31
2023-02-01T04:23:42.427Z,91.03
2023-02-01T04:26:11.484Z,90.61
2023-02-01T04:28:39.171Z,91.12
2023-02-01T04:31:07.117Z,92.37
2023-02-01T04:33:34.872Z,92.18
2023-02-01T04:36:02.746Z,90.19
2023-02-01T04:38:33.062Z,90.99
2023-02-01T04:41:01.338Z,92.32
2023-02-01T04:43:30.370Z,92.36
2023-02-01T04:45:58.078Z,91.97
2023-02-01T04:48:25.736Z,93.66
2023-02-01T04:50:53.406Z,93.38
2023-02-01T04:53:21.166Z,93.36
2023-02-01T04:55:50.762Z,92.34
2023-02-01T04:58:18.549Z,92.89
2023-02-01T05:00:47.668Z,94.20
2023-02-01T05:03:15.390Z,93.56
2023-02-01T05:05:43.232Z,95.12
2023-02-01T05:08:10.945Z,94.08
2023-02-01T05:10:38.581Z,95.59
2023-02-01T05:13:23.561Z,94.89
2023-02-01T05:15:53.708Z,95.60
2023-02-01T05:18:21.457Z,93.91
2023-02-01T05:20:49.126Z,94.76
2023-02-01T05:23:16.833Z,94.77
2023-02-01T05:25:44.539Z,94.10
2023-02-01T05:28:12.234Z,93.88
2023-02-01T05:30:42.267Z,93.09
2023-02-01T05:33:11.571Z,91.93
2023-02-01T05:35:39.319Z,92.27
2023-02-01T05:38:07.006Z,92.68
2023-02-01T05:40:34.821Z,92.50
2023-02-01T05:43:02.484Z,93.04
2023-02-01T05:45:30.227Z,92.86
2023-02-01T05:47:57.890Z,93.95
2023-02-01T05:50:26.972Z,95.55
2023-02-01T05:52:54.644Z,95.06
2023-02-01T05:55:22.460Z,94.49
2023-02-01T05:57:50.152Z,96.36
2023-02-01T06:00:19.633Z,94.99
2023-02-01T06:02:48.592Z,95.20
2023-02-01T06:05:16.599Z,96.04
2023-02-01T06:07:45.646Z,96.00
2023-02-01T06:10:13.541Z,94.91
2023-02-01T06:12:41.341Z,95.53
2023-02-01T06:15:10.173Z,93.54
2023-02-01T06:17:38.227Z,93.66
2023-02-01T06:20:07.570Z,93.41
2023-02-01T06:22:36.975Z,93.09
2023-02-01T06:25:07.445Z,93.33
2023-02-01T06:27:35.509Z,93.50
2023-02-01T06:30:04.421Z,93.35
2023-02-01T06:32:32.263Z,93.69
2023-02-01T06:35:01.492Z,94.23
2023-02-01T06:37:30.442Z,93.53
2023-02-01T06:39:58.259Z,94.40
2023-02-01T06:42:27.617Z,94.17
2023-02-01T06:44:55.291Z,96.01
2023-02-01T06:47:23.049Z,95.05
2023-02-01T06:49:50.746Z,96.00
2023-02-01T06:52:18.499Z,95.72
2023-02-01T06:54:46.301Z,95.57
2023-02-01T06:57:14.257Z,96.38
2023-02-01T06:59:43.322Z,94.94
2023-02-01T07:02:12.902Z,95.30
2023-02-01T07:04:40.689Z,95.92
2023-02-01T07:07:08.493Z,96.79
2023-02-01T07:09:36.212Z,96.14
2023-02-01T07:12:03.946Z,96.08
2023-02-01T07:14:31.774Z,96.62
2023-02-01T07:17:00.900Z,95.04
2023-02-01T07:19:28.607Z,95.15
2023-02-01T07:21:56.396Z,96.09
2023-02-01T07:24:24.557Z,95.36
2023-02-01T07:26:52.925Z,97.02
2023-02-01T07:29:21.757Z,96.80
2023-02-01T07:31:49.436Z,95.54
2023-02-01T07:34:18.625Z,95.77
2023-02-01T07:36:46.478Z,95.04
2023-02-01T07:39:14.177Z,94.90
2023-02-01T07:41:41.912Z,94.50
2023-02-01T07:44:09.641Z,95.34
2023-02-01T07:46:37.497Z,95.57
2023-02-01T07:49:05.207Z,95.29
2023-02-01T07:51:34.554Z,95.75
2023-02-01T07:54:02.287Z,95.24
2023-02-01T07:56:29.983Z,94.76
2023-02-01T07:58:58.260Z,93.70
2023-02-01T08:01:27.373Z,92.62
2023-02-01T08:03:56.937Z,92.65
2023-02-01T08:06:25.823Z,92.21
2023-02-01T08:08:56.039Z,91.73
2023-02-01T08:11:25.315Z,92.35
2023-02-01T08:13:53.423Z,93.44
2023-02-01T08:16:22.496Z,93.48
2023-02-01T08:18:50.392Z,92.04
2023-02-01T08:21:20.987Z,90.77
2023-02-01T08:23:48.805Z,88.67
2023-02-01T08:26:19.923Z,90.49
2023-02-01T08:28:50.423Z,88.88
2023-02-01T08:31:21.087Z,89.85
2023-02-01T08:33:51.470Z,90.32
2023-02-01T08:36:19.951Z,91.21
2023-02-01T08:38:47.987Z,89.56
2023-02-01T08:41:19.921Z,88.04
2023-02-01T08:43:48.829Z,86.46
2023-02-01T08:46:17.204Z,86.60
2023-02-01T08:48:47.119Z,82.19
2023-02-01T08:51:16.867Z,83.49
2023-02-01T08:53:45.056Z,84.37
2023-02-01T08:56:14.269Z,86.18
2023-02-01T08:58:43.757Z,86.57
2023-02-01T09:01:13.949Z,87.97
2023-02-01T09:03:41.965Z,85.71
2023-02-01T09:06:11.945Z,88.41
2023-02-01T09:08:40.618Z,86.68
2023-02-01T09:11:11.450Z,88.89
2023-02-01T09:13:39.257Z,87.91
2023-02-01T09:16:08.663Z,87.24
2023-02-01T09:18:36.553Z,88.06
2023-02-01T09:21:06.561Z,87.78
2023-02-01T09:23:34.493Z,88.52
2023-02-01T09:26:02.355Z,88.60
2023-02-01T09:28:30.207Z,87.41
2023-02-01T09:30:59.140Z,86.57
2023-02-01T09:33:30.014Z,84.66
2023-02-01T09:35:58.556Z,84.25
2023-02-01T09:38:28.254Z,83.74
2023-02-01T09:40:57.095Z,84.10
2023-02-01T09:43:41.128Z,84.47
2023-02-01T09:46:22.150Z,86.13
2023-02-01T09:48:54.809Z,84.38
2023-02-01T09:51:26.710Z,84.80
2023-02-01T09:54:01.958Z,83.68
2023-02-01T09:56:38.244Z,85.29
2023-02-01T09:59:18.670Z,85.18
2023-02-01T10:01:46.623Z,84.96
2023-02-01T10:04:17.686Z,84.98
2023-02-01T10:06:57.668Z,86.59
2023-02-01T10:09:44.215Z,85.05
2023-02-01T10:12:50.559Z,87.33
2023-02-01T10:15:29.783Z,86.87
2023-02-01T10:18:13.363Z,87.12
2023-02-01T10:20:54.813Z,86.10
2023-02-01T10:23:38.994Z,87.47
2023-02-01T10:26:15.066Z,88.06
2023-02-01T10:28:44.956Z,89.33
2023-02-01T10:31:12.723Z,88.84
2023-02-01T10:33:45.545Z,88.92
2023-02-01T10:36:19.330Z,89.43
2023-02-01T10:38:48.215Z,90.75
2023-02-01T10:41:19.604Z,89.62
2023-02-01T10:43:52.977Z,88.47
2023-02-01T10:46:20.937Z,89.46
2023-02-01T10:48:50.651Z,87.85
2023-02-01T10:51:25.207Z,87.99
2023-02-01T10:53:56.400Z,88.99
2023-02-01T10:56:25.559Z,90.40
2023-02-01T10:58:54.116Z,89.60
2023-02-01T11:01:24.300Z,90.40
2023-02-01T11:03:57.432Z,91.82
2023-02-01T11:06:30.788Z,93.70
2023-02-01T11:09:02.044Z,92.30
2023-02-01T11:11:30.404Z,92.07
2023-02-01T11:14:00.214Z,91.61
2023-02-01T11:16:35.226Z,91.85
2023-02-01T11:19:03.242Z,92.04
2023-02-01T11:21:33.352Z,92.61
2023-02-01T11:24:05.007Z,91.61
2023-02-01T11:26:42.392Z,91.37
2023-02-01T11:29:14.896Z,91.08
2023-02-01T11:31:44.031Z,92.27
2023-02-01T11:34:17.040Z,91.65
2023-02-01T11:36:47.925Z,92.66
2023-02-01T11:39:27.509Z,93.85
2023-02-01T11:42:02.926Z,93.50
2023-02-01T11:44:36.724Z,92.46
2023-02-01T11:47:26.913Z,93.24
2023-02-01T11:49:56.360Z,91.58
2023-02-01T11:52:41.654Z,89.76
2023-02-01T11:55:48.053Z,87.99
2023-02-01T11:58:34.068Z,87.00
2023-02-01T12:01:21.060Z,88.54
2023-02-01T12:04:16.195Z,90.09
2023-02-01T12:06:51.575Z,89.85
2023-02-01T12:09:36.123Z,91.85
2023-02-01T12:12:11.114Z,91.54
2023-02-01T12:14:57.544Z,91.38
2023-02-01T12:17:56.539Z,92.99
2023-02-01T12:20:36.988Z,92.87
2023-02-01T12:23:24.625Z,92.21
2023-02-01T12:26:24.625Z,91.82
2023-02-01T12:29:13.145Z,94.05
2023-02-01T12:32:22.965Z,93.67
2023-02-01T12:35:06.614Z,92.61
2023-02-01T12:37:52.193Z,91.06
2023-02-01T12:40:30.693Z,91.36
2023-02-01T12:43:05.047Z,90.65
2023-02-01T12:45:38.682Z,92.30
2023-02-01T12:48:22.801Z,91.75
2023-02-01T12:50:54.564Z,91.43
2023-02-01T12:53:29.264Z,93.46
2023-02-01T12:56:03.077Z,92.04
2023-02-01T12:58:41.035Z,90.09
2023-02-01T13:01:14.620Z,90.32
2023-02-01T13:03:50.457Z,89.01
2023-02-01T13:06:21.475Z,90.75
2023-02-01T13:08:53.359Z,91.18
2023-02-01T13:11:28.201Z,90.84
2023-02-01T13:14:05.311Z,90.61
2023-02-01T13:16:37.281Z,90.04
2023-02-01T13:19:15.788Z,90.96
2023-02-01T13:21:48.228Z,91.36
2023-02-01T13:24:26.978Z,88.85
2023-02-01T13:26:56.526Z,88.46
2023-02-01T13:29:26.966Z,90.19
2023-02-01T13:32:10.655Z,89.58
2023-02-01T13:35:10.861Z,89.76
2023-02-01T13:38:07.698Z,90.42
2023-02-01T13:40:42.825Z,89.14
2023-02-01T13:43:16.382Z,89.18
2023-02-01T13:45:50.079Z,90.22
2023-02-01T13:48:23.918Z,89.90
2023-02-01T13:50:55.875Z,89.38
2023-02-01T13:53:29.821Z,88.55
2023-02-01T13:56:01.210Z,89.60
2023-02-01T13:58:34.921Z,89.05
2023-02-01T14:01:37.092Z,90.20
2023-02-01T14:04:07.501Z,90.19
2023-02-01T14:06:42.295Z,88.50
2023-02-01T14:09:26.956Z,89.10
2023-02-01T14:11:58.131Z,88.64
2023-02-01T14:15:16.089Z,89.02
2023-02-01T14:17:45.294Z,90.71
2023-02-01T14:20:56.812Z,89.63
2023-02-01T14:23:27.398Z,89.26
2023-02-01T14:26:15.156Z,89.84
2023-02-01T14:28:48.448Z,89.17
2023-02-01T14:31:36.650Z,89.58
2023-02-01T14:34:17.220Z,92.68
2023-02-01T14:36:49.932Z,95.21
2023-02-01T14:39:38.471Z,94.71
2023-02-01T14:42:17.197Z,96.75
2023-02-01T14:44:58.657Z,95.68
2023-02-01T14:47:35.637Z,94.13
2023-02-01T14:50:29.271Z,93.36
2023-02-01T14:53:14.563Z,92.91
2023-02-01T14:55:44.559Z,90.46
2023-02-01T14:58:20.451Z,89.81
2023-02-01T15:00:52.393Z,90.98
2023-02-01T15:03:38.036Z,90.93
2023-02-01T15:06:22.744Z,90.57
2023-02-01T15:08:50.567Z,89.10
2023-02-01T15:11:18.771Z,89.06
2023-02-01T15:13:53.580Z,88.94
2023-02-01T15:16:23.700Z,89.56
2023-02-01T15:18:52.360Z,89.15
2023-02-01T15:21:28.804Z,89.54
2023-02-01T15:24:12.792Z,88.54
2023-02-01T15:26:40.593Z,88.01
2023-02-01T15:29:13.277Z,89.75
2023-02-01T15:31:43.938Z,89.87
2023-02-01T15:34:12.306Z,88.88
2023-02-01T15:36:45.756Z,90.23
2023-02-01T15:39:26.756Z,88.78
2023-02-01T15:41:58.313Z,88.44
2023-02-01T15:44:41.301Z,88.81
2023-02-01T15:47:17.070Z,89.24
2023-02-01T15:49:48.514Z,89.19
2023-02-01T15:52:24.567Z,89.22
2023-02-01T15:54:56.141Z,87.53
2023-02-01T15:57:31.559Z,86.38
2023-02-01T16:00:01.442Z,87.40
2023-02-01T16:02:36.151Z,88.55
2023-02-01T16:05:05.197Z,89.97
2023-02-01T16:07:36.293Z,90.11
2023-02-01T16:10:25.089Z,89.79
2023-02-01T16:12:55.332Z,89.87
2023-02-01T16:15:23.400Z,88.61
2023-02-01T16:17:51.373Z,89.07
2023-02-01T16:20:19.687Z,89.56
2023-02-01T16:22:48.810Z,88.94
2023-02-01T16:25:16.726Z,89.52
2023-02-01T16:27:44.559Z,90.71
2023-02-01T16:30:12.765Z,89.03
2023-02-01T16:32:40.833Z,88.18
2023-02-01T16:35:19.999Z,87.91
2023-02-01T16:37:49.330Z,87.45
2023-02-01T16:40:18.955Z,88.88
2023-02-01T16:42:49.753Z,88.18
2023-02-01T16:45:17.721Z,87.19
2023-02-01T16:47:52.242Z,88.38
2023-02-01T16:50:24.304Z,88.00
2023-02-01T16:52:54.328Z,87.25
2023-02-01T16:55:24.035Z,88.75
2023-02-01T16:57:52.053Z,86.63
2023-02-01T17:00:25.700Z,87.60
2023-02-01T17:02:54.556Z,87.54
2023-02-01T17:05:23.253Z,87.49
2023-02-01T17:07:51.558Z,86.81
2023-02-01T17:10:40.978Z,86.42
2023-02-01T17:13:14.521Z,85.54
2023-02-01T17:15:45.880Z,85.27
2023-02-01T17:18:17.265Z,84.71
2023-02-01T17:20:45.320Z,85.03
2023-02-01T17:23:13.289Z,85.92
2023-02-01T17:25:42.977Z,84.93
2023-02-01T17:28:11.003Z,84.81
2023-02-01T17:30:40.426Z,84.36
2023-02-01T17:33:22.602Z,84.15
2023-02-01T17:35:50.738Z,84.62
2023-02-01T17:38:19.118Z,82.65
2023-02-01T17:40:48.372Z,84.21
2023-02-01T17:43:17.174Z,83.08
2023-02-01T17:45:51.623Z,82.93
2023-02-01T17:48:20.442Z,83.79
2023-02-01T17:50:50.243Z,84.21
2023-02-01T17:53:20.330Z,84.53
2023-02-01T17:55:49.390Z,83.22
2023-02-01T17:58:18.283Z,83.57
2023-02-01T18:00:47.787Z,83.96
2023-02-01T18:03:24.331Z,83.44
2023-02-01T18:05:53.763Z,82.74
2023-02-01T18:08:23.266Z,83.77
2023-02-01T18:10:55.856Z,82.95
2023-02-01T18:13:23.808Z,82.48
2023-02-01T18:15:51.521Z,83.33
2023-02-01T18:18:19.381Z,82.50
2023-02-01T18:20:49.303Z,81.84
2023-02-01T18:23:19.613Z,81.82
2023-02-01T18:25:48.195Z,82.12
2023-02-01T18:28:18.204Z,81.94
2023-02-01T18:30:48.303Z,81.57
2023-02-01T18:33:19.111Z,82.64
2023-02-01T18:35:46.854Z,82.45
2023-02-01T18:38:14.668Z,82.59
2023-02-01T18:40:47.747Z,81.88
2023-02-01T18:43:16.998Z,82.42
2023-02-01T18:45:45.999Z,81.42
2023-02-01T18:48:16.052Z,83.11
2023-02-01T18:50:45.737Z,82.05
2023-02-01T18:53:15.579Z,82.60
2023-02-01T18:55:43.653Z,83.36
2023-02-01T18:58:14.553Z,83.81
2023-02-01T19:00:44.863Z,83.16
2023-02-01T19:03:13.135Z,83.93
2023-02-01T19:05:41.280Z,83.19
2023-02-01T19:08:10.177Z,83.81
2023-02-01T19:10:38.634Z,83.69
2023-02-01T19:13:06.852Z,83.76
2023-02-01T19:15:35.956Z,82.92
2023-02-01T19:18:05.134Z,83.03
2023-02-01T19:20:32.824Z,83.49
2023-02-01T19:23:00.722Z,83.24
2023-02-01T19:25:30.376Z,82.68
2023-02-01T19:27:58.062Z,83.12
2023-02-01T19:30:26.148Z,82.78
2023-02-01T19:32:53.957Z,81.83
2023-02-01T19:35:23.560Z,83.80
2023-02-01T19:37:51.478Z,84.00
2023-02-01T19:40:21.086Z,85.43
2023-02-01T19:42:50.606Z,84.65
2023-02-01T19:45:18.915Z,85.66
2023-02-01T19:47:46.775Z,84.42
2023-02-01T19:50:18.402Z,85.41
2023-02-01T19:52:47.792Z,83.94
2023-02-01T19:55:15.830Z,85.78
2023-02-01T19:57:43.991Z,85.46
2023-02-01T20:00:15.219Z,87.33
2023-02-01T20:02:43.851Z,89.98
2023-02-01T20:05:11.896Z,88.06
2023-02-01T20:07:40.185Z,89.02
2023-02-01T20:10:10.917Z,89.12
2023-02-01T20:12:38.940Z,87.34
2023-02-01T20:15:08.005Z,88.15
2023-02-01T20:17:36.460Z,88.30
2023-02-01T20:20:04.748Z,88.09
2023-02-01T20:22:32.652Z,87.25
2023-02-01T20:25:02.410Z,88.02
2023-02-01T20:27:32.420Z,86.69
2023-02-01T20:30:00.140Z,85.46
2023-02-01T20:32:27.885Z,85.10
2023-02-01T20:34:55.654Z,85.29
2023-02-01T20:37:23.338Z,84.47
2023-02-01T20:39:51.110Z,85.09
2023-02-01T20:42:18.793Z,84.23
2023-02-01T20:44:47.799Z,86.14
2023-02-01T20:47:15.546Z,85.25
2023-02-01T20:49:43.282Z,84.04
2023-02-01T20:52:11.018Z,84.42
2023-02-01T20:54:39.296Z,84.01
2023-02-01T20:57:07.413Z,84.06
2023-02-01T20:59:35.119Z,84.09
2023-02-01T21:02:04.556Z,83.55
2023-02-01T21:04:33.900Z,81.89
2023-02-01T21:07:02.888Z,81.65
2023-02-01T21:09:31.002Z,82.35
2023-02-01T21:11:59.213Z,82.35
2023-02-01T21:14:26.947Z,82.70
2023-02-01T21:16:54.597Z,80.79
2023-02-01T21:19:27.715Z,81.25
2023-02-01T21:21:55.778Z,81.68
2023-02-01T21:24:23.490Z,81.15
2023-02-01T21:26:51.146Z,82.98
2023-02-01T21:29:19.103Z,82.83
2023-02-01T21:31:46.805Z,83.23
2023-02-01T21:34:14.483Z,84.70
2023-02-01T21:36:43.484Z,84.49
2023-02-01T21:39:12.155Z,83.70
2023-02-01T21:41:57.693Z,84.03
2023-02-01T21:44:25.491Z,83.60
2023-02-01T21:46:55.382Z,83.09
2023-02-01T21:49:23.784Z,85.17
2023-02-01T21:51:53.267Z,85.86
2023-02-01T21:54:21.008Z,86.06
2023-02-01T21:56:48.724Z,84.81
2023-02-01T21:59:16.434Z,84.92
2023-02-01T22:01:44.125Z,86.86
2023-02-01T22:04:12.414Z,86.33
2023-02-01T22:06:42.408Z,88.35
2023-02-01T22:09:16.931Z,88.72
2023-02-01T22:11:44.709Z,89.79
2023-02-01T22:14:12.899Z,90.05
2023-02-01T22:16:40.929Z,90.34
2023-02-01T22:19:09.923Z,89.97
2023-02-01T22:21:38.925Z,89.78
2023-02-01T22:24:07.252Z,89.15
2023-02-01T22:26:36.480Z,87.30
2023-02-01T22:29:04.355Z,87.87
2023-02-01T22:31:32.487Z,88.14
2023-02-01T22:34:00.438Z,86.79
2023-02-01T22:36:28.260Z,86.67
2023-02-01T22:38:57.557Z,85.67
2023-02-01T22:41:25.452Z,85.68
2023-02-01T22:43:54.497Z,85.43
2023-02-01T22:46:25.375Z,84.90
2023-02-01T22:48:53.189Z,84.58
2023-02-01T22:51:23.058Z,83.97
2023-02-01T22:53:57.050Z,83.36
2023-02-01T22:56:26.215Z,83.62
2023-02-01T22:58:59.488Z,83.09
2023-02-01T23:01:27.555Z,82.21
2023-02-01T23:03:58.107Z,83.61
2023-02-01T23:06:26.794Z,82.77
2023-02-01T23:08:58.902Z,83.44
2023-02-01T23:11:27.882Z,82.63
2023-02-01T23:13:56.406Z,82.17
2023-02-01T23:16:25.937Z,83.31
2023-02-01T23:18:53.675Z,84.60
2023-02-01T23:21:23.535Z,85.55
2023-02-01T23:23:53.576Z,84.34
2023-02-01T23:26:22.526Z,84.94
2023-02-01T23:28:52.217Z,86.62
2023-02-01T23:31:20.022Z,87.55
2023-02-01T23:33:50.122Z,88.81
2023-02-01T23:36:18.153Z,89.15
2023-02-01T23:38:46.690Z,88.45
2023-02-01T23:41:16.154Z,88.47
2023-02-01T23:43:59.303Z,87.53
2023-02-01T23:46:29.377Z,88.12
2023-02-01T23:48:59.324Z,88.18
2023-02-01T23:51:27.906Z,86.70
2023-02-01T23:53:56.410Z,86.11
2023-02-01T23:56:26.410Z,87.44
2023-02-01T23:58:56.725Z,87.11
